sensor_id;sensor_type;location;lat;lon;timestamp;P1;durP1;ratioP1;P2;durP2;ratioP2
73959;SDS011;62316;48.920;2.342;2023-05-10T04:02:27;0.00;;;0.00;;
73959;SDS011;62316;48.920;2.342;2023-05-10T04:04:59;0.00;;;0.00;;
73959;SDS011;62316;48.920;2.342;2023-05-10T04:07:25;0.00;;;0.00;;
73959;SDS011;62316;48.920;2.342;2023-05-10T04:09:50;0.00;;;0.00;;
73959;SDS011;62316;48.920;2.342;2023-05-10T04:12:16;1.00;;;1.00;;
73959;SDS011;62316;48.920;2.342;2023-05-10T04:14:41;0.00;;;0.00;;
73959;SDS011;62316;48.920;2.342;2023-05-10T04:17:06;0.00;;;0.00;;
73959;SDS011;62316;48.920;2.342;2023-05-10T04:19:32;1.00;;;0.00;;
73959;SDS011;62316;48.920;2.342;2023-05-10T04:21:58;0.00;;;0.00;;
73959;SDS011;62316;48.920;2.342;2023-05-10T04:24:23;0.00;;;0.00;;
73959;SDS011;62316;48.920;2.342;2023-05-10T04:26:49;0.67;;;0.67;;
73959;SDS011;62316;48.920;2.342;2023-05-10T04:29:14;0.67;;;0.67;;
73959;SDS011;62316;48.920;2.342;2023-05-10T04:31:40;0.00;;;0.00;;
73959;SDS011;62316;48.920;2.342;2023-05-10T04:34:05;2.33;;;2.33;;
73959;SDS011;62316;48.920;2.342;2023-05-10T04:36:30;1.00;;;1.00;;
73959;SDS011;62316;48.920;2.342;2023-05-10T04:38:58;1.67;;;1.67;;
73959;SDS011;62316;48.920;2.342;2023-05-10T04:41:24;1.00;;;1.00;;
73959;SDS011;62316;48.920;2.342;2023-05-10T04:43:50;3.67;;;3.67;;
73959;SDS011;62316;48.920;2.342;2023-05-10T04:46:15;2.00;;;0.33;;
73959;SDS011;62316;48.920;2.342;2023-05-10T04:48:41;1.00;;;1.00;;
73959;SDS011;62316;48.920;2.342;2023-05-10T04:51:06;1.00;;;0.00;;
73959;SDS011;62316;48.920;2.342;2023-05-10T04:53:31;2.00;;;2.00;;
73959;SDS011;62316;48.920;2.342;2023-05-10T04:55:57;3.00;;;3.00;;
73959;SDS011;62316;48.920;2.342;2023-05-10T04:58:22;3.00;;;3.00;;
73959;SDS011;62316;48.920;2.342;2023-05-10T05:00:48;1.00;;;1.00;;
73959;SDS011;62316;48.920;2.342;2023-05-10T05:03:13;0.33;;;0.33;;
73959;SDS011;62316;48.920;2.342;2023-05-10T05:05:38;2.00;;;2.00;;
73959;SDS011;62316;48.920;2.342;2023-05-10T05:08:04;2.00;;;2.00;;
73959;SDS011;62316;48.920;2.342;2023-05-10T05:10:29;0.00;;;0.00;;
73959;SDS011;62316;48.920;2.342;2023-05-10T05:12:55;0.33;;;0.33;;
73959;SDS011;62316;48.920;2.342;2023-05-10T05:15:20;3.00;;;1.00;;
73959;SDS011;62316;48.920;2.342;2023-05-10T05:17:46;1.00;;;1.00;;
73959;SDS011;62316;48.920;2.342;2023-05-10T05:20:11;1.00;;;1.00;;
73959;SDS011;62316;48.920;2.342;2023-05-10T05:22:37;2.00;;;2.00;;
73959;SDS011;62316;48.920;2.342;2023-05-10T05:25:03;2.00;;;2.00;;
73959;SDS011;62316;48.920;2.342;2023-05-10T05:27:29;3.00;;;3.00;;
73959;SDS011;62316;48.920;2.342;2023-05-10T05:29:55;2.67;;;2.67;;
73959;SDS011;62316;48.920;2.342;2023-05-10T05:32:21;1.00;;;1.00;;
73959;SDS011;62316;48.920;2.342;2023-05-10T05:34:47;1.67;;;1.67;;
73959;SDS011;62316;48.920;2.342;2023-05-10T05:37:13;3.67;;;3.67;;
73959;SDS011;62316;48.920;2.342;2023-05-10T05:39:42;6.00;;;5.67;;
73959;SDS011;62316;48.920;2.342;2023-05-10T05:42:08;6.00;;;3.67;;
73959;SDS011;62316;48.920;2.342;2023-05-10T05:44:34;3.00;;;3.00;;
73959;SDS011;62316;48.920;2.342;2023-05-10T05:46:59;0.67;;;0.67;;
73959;SDS011;62316;48.920;2.342;2023-05-10T05:49:25;4.00;;;2.33;;
73959;SDS011;62316;48.920;2.342;2023-05-10T05:51:50;3.33;;;1.00;;
73959;SDS011;62316;48.920;2.342;2023-05-10T05:54:16;1.00;;;1.00;;
73959;SDS011;62316;48.920;2.342;2023-05-10T05:56:41;2.00;;;1.00;;
73959;SDS011;62316;48.920;2.342;2023-05-10T05:59:07;2.00;;;2.00;;
73959;SDS011;62316;48.920;2.342;2023-05-10T06:01:32;1.33;;;1.00;;
73959;SDS011;62316;48.920;2.342;2023-05-10T06:03:58;2.00;;;1.00;;
73959;SDS011;62316;48.920;2.342;2023-05-10T06:06:24;3.33;;;3.33;;
73959;SDS011;62316;48.920;2.342;2023-05-10T06:08:49;2.67;;;2.00;;
73959;SDS011;62316;48.920;2.342;2023-05-10T06:11:15;1.00;;;1.00;;
73959;SDS011;62316;48.920;2.342;2023-05-10T06:13:40;2.33;;;2.00;;
73959;SDS011;62316;48.920;2.342;2023-05-10T06:16:05;3.33;;;2.00;;
73959;SDS011;62316;48.920;2.342;2023-05-10T06:18:31;3.00;;;3.00;;
73959;SDS011;62316;48.920;2.342;2023-05-10T06:20:56;2.33;;;2.33;;
73959;SDS011;62316;48.920;2.342;2023-05-10T06:23:22;6.67;;;5.67;;
73959;SDS011;62316;48.920;2.342;2023-05-10T06:25:48;2.33;;;2.00;;
73959;SDS011;62316;48.920;2.342;2023-05-10T06:28:14;4.67;;;3.33;;
73959;SDS011;62316;48.920;2.342;2023-05-10T06:30:39;3.00;;;2.00;;
73959;SDS011;62316;48.920;2.342;2023-05-10T06:33:05;6.00;;;5.67;;
73959;SDS011;62316;48.920;2.342;2023-05-10T06:35:30;3.00;;;2.00;;
73959;SDS011;62316;48.920;2.342;2023-05-10T06:37:57;3.00;;;2.00;;
73959;SDS011;62316;48.920;2.342;2023-05-10T06:40:22;5.67;;;5.67;;
73959;SDS011;62316;48.920;2.342;2023-05-10T06:42:48;4.33;;;2.00;;
73959;SDS011;62316;48.920;2.342;2023-05-10T06:45:14;1.33;;;1.33;;
73959;SDS011;62316;48.920;2.342;2023-05-10T06:47:40;4.00;;;2.67;;
73959;SDS011;62316;48.920;2.342;2023-05-10T06:50:07;4.67;;;4.67;;
73959;SDS011;62316;48.920;2.342;2023-05-10T06:52:33;4.00;;;3.33;;
73959;SDS011;62316;48.920;2.342;2023-05-10T06:54:58;3.00;;;3.00;;
73959;SDS011;62316;48.920;2.342;2023-05-10T06:57:24;3.33;;;2.00;;
73959;SDS011;62316;48.920;2.342;2023-05-10T06:59:49;3.00;;;2.00;;
73959;SDS011;62316;48.920;2.342;2023-05-10T07:02:26;4.67;;;4.67;;
73959;SDS011;62316;48.920;2.342;2023-05-10T07:05:19;5.00;;;3.67;;
73959;SDS011;62316;48.920;2.342;2023-05-10T07:07:45;4.00;;;2.00;;
73959;SDS011;62316;48.920;2.342;2023-05-10T07:10:11;4.67;;;4.67;;
73959;SDS011;62316;48.920;2.342;2023-05-10T07:12:36;2.67;;;2.67;;
73959;SDS011;62316;48.920;2.342;2023-05-10T07:15:02;2.67;;;2.67;;
73959;SDS011;62316;48.920;2.342;2023-05-10T07:17:27;2.00;;;2.00;;
73959;SDS011;62316;48.920;2.342;2023-05-10T07:19:53;4.00;;;4.00;;
73959;SDS011;62316;48.920;2.342;2023-05-10T07:22:18;4.00;;;4.00;;
73959;SDS011;62316;48.920;2.342;2023-05-10T07:24:51;3.67;;;2.00;;
73959;SDS011;62316;48.920;2.342;2023-05-10T07:27:22;6.00;;;5.00;;
73959;SDS011;62316;48.920;2.342;2023-05-10T07:29:48;3.67;;;3.67;;
73959;SDS011;62316;48.920;2.342;2023-05-10T07:32:13;4.67;;;3.00;;
73959;SDS011;62316;48.920;2.342;2023-05-10T07:34:39;5.00;;;5.00;;
73959;SDS011;62316;48.920;2.342;2023-05-10T07:37:04;7.67;;;6.00;;
73959;SDS011;62316;48.920;2.342;2023-05-10T07:39:31;7.00;;;5.00;;
73959;SDS011;62316;48.920;2.342;2023-05-10T07:41:56;5.50;;;5.50;;
73959;SDS011;62316;48.920;2.342;2023-05-10T07:44:22;4.75;;;4.75;;
73959;SDS011;62316;48.920;2.342;2023-05-10T07:46:53;10.50;;;6.25;;
73959;SDS011;62316;48.920;2.342;2023-05-10T07:49:18;7.75;;;6.75;;
73959;SDS011;62316;48.920;2.342;2023-05-10T07:51:44;8.00;;;5.00;;
73959;SDS011;62316;48.920;2.342;2023-05-10T07:54:10;4.00;;;4.00;;
73959;SDS011;62316;48.920;2.342;2023-05-10T07:56:35;5.25;;;4.75;;
73959;SDS011;62316;48.920;2.342;2023-05-10T07:59:01;5.00;;;5.00;;
73959;SDS011;62316;48.920;2.342;2023-05-10T08:01:32;3.00;;;2.67;;
73959;SDS011;62316;48.920;2.342;2023-05-10T08:03:59;5.67;;;4.67;;
73959;SDS011;62316;48.920;2.342;2023-05-10T08:06:25;5.00;;;5.00;;
73959;SDS011;62316;48.920;2.342;2023-05-10T08:08:52;8.00;;;4.33;;
73959;SDS011;62316;48.920;2.342;2023-05-10T08:11:19;5.00;;;4.00;;
73959;SDS011;62316;48.920;2.342;2023-05-10T08:13:45;6.67;;;5.67;;
73959;SDS011;62316;48.920;2.342;2023-05-10T08:16:13;7.67;;;7.00;;
73959;SDS011;62316;48.920;2.342;2023-05-10T08:18:39;6.75;;;6.00;;
73959;SDS011;62316;48.920;2.342;2023-05-10T08:21:04;8.00;;;8.00;;
73959;SDS011;62316;48.920;2.342;2023-05-10T08:23:30;6.75;;;6.50;;
73959;SDS011;62316;48.920;2.342;2023-05-10T08:25:56;9.75;;;8.00;;
73959;SDS011;62316;48.920;2.342;2023-05-10T08:28:21;7.75;;;7.75;;
73959;SDS011;62316;48.920;2.342;2023-05-10T08:30:49;14.00;;;8.33;;
73959;SDS011;62316;48.920;2.342;2023-05-10T08:33:15;9.00;;;9.00;;
73959;SDS011;62316;48.920;2.342;2023-05-10T08:35:40;11.00;;;9.25;;
73959;SDS011;62316;48.920;2.342;2023-05-10T08:38:06;10.00;;;8.67;;
73959;SDS011;62316;48.920;2.342;2023-05-10T08:40:31;12.00;;;9.33;;
73959;SDS011;62316;48.920;2.342;2023-05-10T08:42:58;12.33;;;9.33;;
73959;SDS011;62316;48.920;2.342;2023-05-10T08:45:31;10.25;;;9.50;;
73959;SDS011;62316;48.920;2.342;2023-05-10T08:47:59;8.33;;;8.33;;
73959;SDS011;62316;48.920;2.342;2023-05-10T08:50:26;8.67;;;8.00;;
73959;SDS011;62316;48.920;2.342;2023-05-10T08:52:51;17.33;;;10.00;;
73959;SDS011;62316;48.920;2.342;2023-05-10T08:55:18;12.33;;;8.67;;
73959;SDS011;62316;48.920;2.342;2023-05-10T08:57:43;10.50;;;9.50;;
73959;SDS011;62316;48.920;2.342;2023-05-10T09:00:11;11.50;;;11.50;;
73959;SDS011;62316;48.920;2.342;2023-05-10T09:02:38;10.75;;;9.25;;
73959;SDS011;62316;48.920;2.342;2023-05-10T09:05:03;9.75;;;9.75;;
73959;SDS011;62316;48.920;2.342;2023-05-10T09:07:29;12.50;;;12.00;;
73959;SDS011;62316;48.920;2.342;2023-05-10T09:09:55;18.00;;;14.00;;
73959;SDS011;62316;48.920;2.342;2023-05-10T09:12:20;15.25;;;13.75;;
73959;SDS011;62316;48.920;2.342;2023-05-10T09:14:46;15.00;;;13.50;;
73959;SDS011;62316;48.920;2.342;2023-05-10T09:17:11;15.00;;;12.75;;
73959;SDS011;62316;48.920;2.342;2023-05-10T09:19:37;18.00;;;14.00;;
73959;SDS011;62316;48.920;2.342;2023-05-10T09:22:03;14.50;;;11.25;;
73959;SDS011;62316;48.920;2.342;2023-05-10T09:24:29;14.33;;;12.00;;
73959;SDS011;62316;48.920;2.342;2023-05-10T09:26:55;15.00;;;11.00;;
73959;SDS011;62316;48.920;2.342;2023-05-10T09:29:22;12.25;;;11.00;;
73959;SDS011;62316;48.920;2.342;2023-05-10T09:31:48;11.00;;;10.67;;
73959;SDS011;62316;48.920;2.342;2023-05-10T09:34:17;13.75;;;13.00;;
73959;SDS011;62316;48.920;2.342;2023-05-10T09:36:53;11.33;;;10.33;;
73959;SDS011;62316;48.920;2.342;2023-05-10T09:39:20;12.75;;;11.25;;
73959;SDS011;62316;48.920;2.342;2023-05-10T09:41:45;12.33;;;10.00;;
73959;SDS011;62316;48.920;2.342;2023-05-10T09:44:11;13.00;;;11.33;;
73959;SDS011;62316;48.920;2.342;2023-05-10T09:46:37;14.50;;;13.50;;
73959;SDS011;62316;48.920;2.342;2023-05-10T09:49:02;12.25;;;10.25;;
73959;SDS011;62316;48.920;2.342;2023-05-10T09:51:28;12.75;;;10.00;;
73959;SDS011;62316;48.920;2.342;2023-05-10T09:54:10;16.00;;;10.33;;
73959;SDS011;62316;48.920;2.342;2023-05-10T09:56:37;14.75;;;12.50;;
73959;SDS011;62316;48.920;2.342;2023-05-10T09:59:04;13.50;;;9.75;;
73959;SDS011;62316;48.920;2.342;2023-05-10T10:01:30;9.25;;;9.00;;
73959;SDS011;62316;48.920;2.342;2023-05-10T10:03:56;11.00;;;9.67;;
73959;SDS011;62316;48.920;2.342;2023-05-10T10:06:22;12.25;;;9.25;;
73959;SDS011;62316;48.920;2.342;2023-05-10T10:08:48;13.25;;;12.00;;
73959;SDS011;62316;48.920;2.342;2023-05-10T10:11:14;11.75;;;9.25;;
73959;SDS011;62316;48.920;2.342;2023-05-10T10:13:39;13.50;;;9.50;;
73959;SDS011;62316;48.920;2.342;2023-05-10T10:16:05;12.00;;;9.00;;
73959;SDS011;62316;48.920;2.342;2023-05-10T10:18:30;8.25;;;7.00;;
73959;SDS011;62316;48.920;2.342;2023-05-10T10:20:56;15.75;;;12.00;;
73959;SDS011;62316;48.920;2.342;2023-05-10T10:23:21;11.00;;;8.67;;
73959;SDS011;62316;48.920;2.342;2023-05-10T10:25:48;10.33;;;8.33;;
73959;SDS011;62316;48.920;2.342;2023-05-10T10:28:23;9.00;;;9.00;;
73959;SDS011;62316;48.920;2.342;2023-05-10T10:30:52;9.00;;;9.00;;
73959;SDS011;62316;48.920;2.342;2023-05-10T10:33:40;11.00;;;10.00;;
73959;SDS011;62316;48.920;2.342;2023-05-10T10:36:13;12.33;;;10.67;;
73959;SDS011;62316;48.920;2.342;2023-05-10T10:41:26;13.00;;;8.00;;
73959;SDS011;62316;48.920;2.342;2023-05-10T10:57:55;12.25;;;10.25;;
73959;SDS011;62316;48.920;2.342;2023-05-10T11:00:29;10.75;;;9.00;;
73959;SDS011;62316;48.920;2.342;2023-05-10T11:07:58;9.67;;;8.00;;
73959;SDS011;62316;48.920;2.342;2023-05-10T11:10:24;12.33;;;9.00;;
73959;SDS011;62316;48.920;2.342;2023-05-10T11:12:58;8.00;;;7.33;;
73959;SDS011;62316;48.920;2.342;2023-05-10T11:15:29;8.33;;;7.33;;
73959;SDS011;62316;48.920;2.342;2023-05-10T11:17:59;13.67;;;10.00;;
73959;SDS011;62316;48.920;2.342;2023-05-10T11:20:27;10.00;;;8.67;;
73959;SDS011;62316;48.920;2.342;2023-05-10T11:22:58;12.33;;;7.33;;
73959;SDS011;62316;48.920;2.342;2023-05-10T11:25:40;6.00;;;6.00;;
73959;SDS011;62316;48.920;2.342;2023-05-10T11:28:12;7.33;;;7.33;;
73959;SDS011;62316;48.920;2.342;2023-05-10T11:30:38;13.00;;;9.67;;
73959;SDS011;62316;48.920;2.342;2023-05-10T11:33:04;11.00;;;8.33;;
73959;SDS011;62316;48.920;2.342;2023-05-10T11:35:30;10.00;;;8.00;;
73959;SDS011;62316;48.920;2.342;2023-05-10T11:37:55;10.33;;;7.33;;
73959;SDS011;62316;48.920;2.342;2023-05-10T11:40:21;10.00;;;7.33;;
73959;SDS011;62316;48.920;2.342;2023-05-10T11:42:49;9.67;;;7.00;;
73959;SDS011;62316;48.920;2.342;2023-05-10T11:45:15;10.33;;;8.67;;
73959;SDS011;62316;48.920;2.342;2023-05-10T11:47:40;11.33;;;8.67;;
73959;SDS011;62316;48.920;2.342;2023-05-10T11:50:08;14.33;;;10.67;;
73959;SDS011;62316;48.920;2.342;2023-05-10T11:52:37;7.00;;;6.00;;
73959;SDS011;62316;48.920;2.342;2023-05-10T11:55:02;5.00;;;4.33;;
73959;SDS011;62316;48.920;2.342;2023-05-10T11:57:28;13.00;;;9.00;;
73959;SDS011;62316;48.920;2.342;2023-05-10T11:59:54;9.00;;;8.33;;
73959;SDS011;62316;48.920;2.342;2023-05-10T12:02:20;7.67;;;5.67;;
73959;SDS011;62316;48.920;2.342;2023-05-10T12:04:45;8.00;;;7.00;;
73959;SDS011;62316;48.920;2.342;2023-05-10T12:07:11;6.00;;;5.67;;
73959;SDS011;62316;48.920;2.342;2023-05-10T12:09:36;9.00;;;6.33;;
73959;SDS011;62316;48.920;2.342;2023-05-10T12:12:02;5.67;;;5.67;;
73959;SDS011;62316;48.920;2.342;2023-05-10T12:14:27;10.00;;;7.67;;
73959;SDS011;62316;48.920;2.342;2023-05-10T12:16:53;9.33;;;7.00;;
73959;SDS011;62316;48.920;2.342;2023-05-10T12:19:19;8.33;;;8.33;;
73959;SDS011;62316;48.920;2.342;2023-05-10T12:21:47;8.75;;;7.50;;
73959;SDS011;62316;48.920;2.342;2023-05-10T12:24:13;5.00;;;3.67;;
73959;SDS011;62316;48.920;2.342;2023-05-10T12:26:41;11.00;;;10.00;;
73959;SDS011;62316;48.920;2.342;2023-05-10T12:29:13;10.33;;;9.67;;
73959;SDS011;62316;48.920;2.342;2023-05-10T12:34:24;9.67;;;7.00;;
73959;SDS011;62316;48.920;2.342;2023-05-10T12:36:55;9.00;;;9.00;;
73959;SDS011;62316;48.920;2.342;2023-05-10T12:39:21;14.00;;;13.25;;
73959;SDS011;62316;48.920;2.342;2023-05-10T12:41:46;9.33;;;8.67;;
73959;SDS011;62316;48.920;2.342;2023-05-10T12:44:12;7.33;;;7.00;;
73959;SDS011;62316;48.920;2.342;2023-05-10T12:46:37;6.00;;;6.00;;
73959;SDS011;62316;48.920;2.342;2023-05-10T12:49:03;7.67;;;6.67;;
73959;SDS011;62316;48.920;2.342;2023-05-10T12:51:28;10.67;;;7.33;;
73959;SDS011;62316;48.920;2.342;2023-05-10T12:53:53;5.67;;;4.33;;
73959;SDS011;62316;48.920;2.342;2023-05-10T12:56:19;5.33;;;5.33;;
73959;SDS011;62316;48.920;2.342;2023-05-10T12:58:45;6.33;;;6.33;;
73959;SDS011;62316;48.920;2.342;2023-05-10T13:01:13;10.67;;;9.00;;
73959;SDS011;62316;48.920;2.342;2023-05-10T13:03:40;5.33;;;5.33;;
73959;SDS011;62316;48.920;2.342;2023-05-10T13:06:06;6.00;;;4.00;;
73959;SDS011;62316;48.920;2.342;2023-05-10T13:08:31;6.00;;;6.00;;
73959;SDS011;62316;48.920;2.342;2023-05-10T13:10:59;6.33;;;4.33;;
73959;SDS011;62316;48.920;2.342;2023-05-10T13:13:27;8.67;;;4.33;;
73959;SDS011;62316;48.920;2.342;2023-05-10T13:15:52;7.67;;;6.67;;
73959;SDS011;62316;48.920;2.342;2023-05-10T13:18:18;5.00;;;5.00;;
73959;SDS011;62316;48.920;2.342;2023-05-10T13:21:09;5.00;;;3.00;;
73959;SDS011;62316;48.920;2.342;2023-05-10T13:23:36;4.00;;;4.00;;
73959;SDS011;62316;48.920;2.342;2023-05-10T13:26:01;5.67;;;4.67;;
73959;SDS011;62316;48.920;2.342;2023-05-10T13:28:26;4.67;;;3.67;;
73959;SDS011;62316;48.920;2.342;2023-05-10T13:30:52;5.33;;;5.00;;
73959;SDS011;62316;48.920;2.342;2023-05-10T13:33:17;6.33;;;5.00;;
73959;SDS011;62316;48.920;2.342;2023-05-10T13:35:49;5.67;;;5.00;;
73959;SDS011;62316;48.920;2.342;2023-05-10T13:38:14;10.33;;;6.33;;
73959;SDS011;62316;48.920;2.342;2023-05-10T13:40:40;9.00;;;8.00;;
73959;SDS011;62316;48.920;2.342;2023-05-10T13:43:05;6.67;;;3.67;;
73959;SDS011;62316;48.920;2.342;2023-05-10T13:45:31;6.00;;;5.00;;
73959;SDS011;62316;48.920;2.342;2023-05-10T13:47:56;6.67;;;4.33;;
73959;SDS011;62316;48.920;2.342;2023-05-10T13:50:22;6.00;;;4.00;;
73959;SDS011;62316;48.920;2.342;2023-05-10T13:52:47;5.00;;;5.00;;
73959;SDS011;62316;48.920;2.342;2023-05-10T13:55:12;5.00;;;5.00;;
73959;SDS011;62316;48.920;2.342;2023-05-10T13:57:38;5.67;;;5.00;;
73959;SDS011;62316;48.920;2.342;2023-05-10T14:00:03;5.00;;;5.00;;
73959;SDS011;62316;48.920;2.342;2023-05-10T14:02:29;8.67;;;7.67;;
73959;SDS011;62316;48.920;2.342;2023-05-10T14:05:08;5.00;;;5.00;;
73959;SDS011;62316;48.920;2.342;2023-05-10T14:07:33;7.00;;;6.00;;
73959;SDS011;62316;48.920;2.342;2023-05-10T14:09:59;25.00;;;23.25;;
73959;SDS011;62316;48.920;2.342;2023-05-10T14:12:25;10.00;;;8.75;;
73959;SDS011;62316;48.920;2.342;2023-05-10T14:14:50;7.00;;;6.00;;
73959;SDS011;62316;48.920;2.342;2023-05-10T14:17:17;7.33;;;6.00;;
73959;SDS011;62316;48.920;2.342;2023-05-10T14:19:42;6.67;;;6.00;;
73959;SDS011;62316;48.920;2.342;2023-05-10T14:22:16;5.67;;;5.00;;
73959;SDS011;62316;48.920;2.342;2023-05-10T14:25:26;5.33;;;4.33;;
73959;SDS011;62316;48.920;2.342;2023-05-10T14:27:51;5.00;;;5.00;;
73959;SDS011;62316;48.920;2.342;2023-05-10T14:30:19;5.00;;;5.00;;
73959;SDS011;62316;48.920;2.342;2023-05-10T14:32:45;5.67;;;5.67;;
73959;SDS011;62316;48.920;2.342;2023-05-10T14:35:10;4.33;;;4.33;;
73959;SDS011;62316;48.920;2.342;2023-05-10T14:37:37;5.00;;;3.00;;
73959;SDS011;62316;48.920;2.342;2023-05-10T14:43:07;4.33;;;2.00;;
73959;SDS011;62316;48.920;2.342;2023-05-10T14:45:33;4.00;;;3.00;;
73959;SDS011;62316;48.920;2.342;2023-05-10T14:47:58;4.00;;;3.00;;
73959;SDS011;62316;48.920;2.342;2023-05-10T14:50:24;3.33;;;3.00;;
73959;SDS011;62316;48.920;2.342;2023-05-10T14:52:49;4.00;;;2.33;;
73959;SDS011;62316;48.920;2.342;2023-05-10T14:55:15;5.67;;;4.00;;
73959;SDS011;62316;48.920;2.342;2023-05-10T14:57:40;5.33;;;5.33;;
73959;SDS011;62316;48.920;2.342;2023-05-10T15:00:06;3.33;;;2.67;;
73959;SDS011;62316;48.920;2.342;2023-05-10T15:02:32;2.00;;;1.00;;
73959;SDS011;62316;48.920;2.342;2023-05-10T15:04:58;2.67;;;1.67;;
73959;SDS011;62316;48.920;2.342;2023-05-10T15:07:23;1.67;;;1.00;;
73959;SDS011;62316;48.920;2.342;2023-05-10T15:09:52;0.33;;;0.33;;
73959;SDS011;62316;48.920;2.342;2023-05-10T15:12:17;2.67;;;2.67;;
73959;SDS011;62316;48.920;2.342;2023-05-10T15:14:43;3.00;;;3.00;;
73959;SDS011;62316;48.920;2.342;2023-05-10T15:17:09;2.00;;;2.00;;
73959;SDS011;62316;48.920;2.342;2023-05-10T15:19:35;3.00;;;3.00;;
73959;SDS011;62316;48.920;2.342;2023-05-10T15:22:01;1.00;;;1.00;;
73959;SDS011;62316;48.920;2.342;2023-05-10T15:24:27;3.00;;;3.00;;
73959;SDS011;62316;48.920;2.342;2023-05-10T15:26:52;3.00;;;3.00;;
73959;SDS011;62316;48.920;2.342;2023-05-10T15:29:18;6.00;;;3.00;;
73959;SDS011;62316;48.920;2.342;2023-05-10T15:31:48;5.67;;;4.00;;
73959;SDS011;62316;48.920;2.342;2023-05-10T15:34:15;3.00;;;2.33;;
73959;SDS011;62316;48.920;2.342;2023-05-10T15:36:41;4.33;;;4.33;;
73959;SDS011;62316;48.920;2.342;2023-05-10T15:39:06;5.67;;;4.33;;
73959;SDS011;62316;48.920;2.342;2023-05-10T15:41:32;5.33;;;4.00;;
73959;SDS011;62316;48.920;2.342;2023-05-10T15:43:57;4.00;;;4.00;;
73959;SDS011;62316;48.920;2.342;2023-05-10T15:46:26;4.67;;;4.67;;
73959;SDS011;62316;48.920;2.342;2023-05-10T15:48:52;4.67;;;4.00;;
73959;SDS011;62316;48.920;2.342;2023-05-10T15:51:18;2.33;;;2.33;;
73959;SDS011;62316;48.920;2.342;2023-05-10T15:53:43;3.33;;;3.33;;
73959;SDS011;62316;48.920;2.342;2023-05-10T15:56:09;2.33;;;1.00;;
73959;SDS011;62316;48.920;2.342;2023-05-10T15:58:35;3.00;;;1.67;;
73959;SDS011;62316;48.920;2.342;2023-05-10T16:06:38;3.00;;;3.00;;
73959;SDS011;62316;48.920;2.342;2023-05-10T16:09:03;4.67;;;3.00;;
73959;SDS011;62316;48.920;2.342;2023-05-10T16:11:29;4.67;;;2.33;;
73959;SDS011;62316;48.920;2.342;2023-05-10T16:14:00;3.00;;;2.00;;
73959;SDS011;62316;48.920;2.342;2023-05-10T16:16:26;6.00;;;4.00;;
73959;SDS011;62316;48.920;2.342;2023-05-10T16:18:51;2.00;;;2.00;;
73959;SDS011;62316;48.920;2.342;2023-05-10T16:21:17;3.33;;;2.00;;
73959;SDS011;62316;48.920;2.342;2023-05-10T16:23:45;3.00;;;2.00;;
73959;SDS011;62316;48.920;2.342;2023-05-10T16:26:10;3.00;;;3.00;;
73959;SDS011;62316;48.920;2.342;2023-05-10T16:28:36;1.00;;;1.00;;
73959;SDS011;62316;48.920;2.342;2023-05-10T16:31:02;2.00;;;2.00;;
73959;SDS011;62316;48.920;2.342;2023-05-10T16:33:28;5.33;;;1.33;;
73959;SDS011;62316;48.920;2.342;2023-05-10T16:35:53;4.00;;;3.67;;
73959;SDS011;62316;48.920;2.342;2023-05-10T16:38:18;5.00;;;5.00;;
73959;SDS011;62316;48.920;2.342;2023-05-10T16:40:45;2.00;;;2.00;;
73959;SDS011;62316;48.920;2.342;2023-05-10T16:43:11;2.00;;;2.00;;
73959;SDS011;62316;48.920;2.342;2023-05-10T16:45:36;2.00;;;0.67;;
73959;SDS011;62316;48.920;2.342;2023-05-10T16:48:02;2.33;;;1.33;;
73959;SDS011;62316;48.920;2.342;2023-05-10T16:50:28;1.67;;;1.67;;
73959;SDS011;62316;48.920;2.342;2023-05-10T16:52:53;3.00;;;1.00;;
73959;SDS011;62316;48.920;2.342;2023-05-10T16:55:19;4.67;;;3.00;;
73959;SDS011;62316;48.920;2.342;2023-05-10T16:57:44;3.00;;;3.00;;
73959;SDS011;62316;48.920;2.342;2023-05-10T17:00:10;3.00;;;3.00;;
73959;SDS011;62316;48.920;2.342;2023-05-10T17:02:36;2.67;;;2.67;;
73959;SDS011;62316;48.920;2.342;2023-05-10T17:05:03;3.00;;;3.00;;
73959;SDS011;62316;48.920;2.342;2023-05-10T17:07:35;2.67;;;2.00;;
73959;SDS011;62316;48.920;2.342;2023-05-10T17:10:01;4.33;;;3.67;;
73959;SDS011;62316;48.920;2.342;2023-05-10T17:12:26;3.00;;;2.67;;
73959;SDS011;62316;48.920;2.342;2023-05-10T17:14:51;3.33;;;2.00;;
73959;SDS011;62316;48.920;2.342;2023-05-10T17:17:17;6.00;;;5.00;;
73959;SDS011;62316;48.920;2.342;2023-05-10T17:19:55;3.00;;;3.00;;
73959;SDS011;62316;48.920;2.342;2023-05-10T17:22:20;3.67;;;3.67;;
73959;SDS011;62316;48.920;2.342;2023-05-10T17:24:49;3.33;;;3.00;;
73959;SDS011;62316;48.920;2.342;2023-05-10T17:27:14;4.00;;;4.00;;
73959;SDS011;62316;48.920;2.342;2023-05-10T17:29:40;5.00;;;3.00;;
73959;SDS011;62316;48.920;2.342;2023-05-10T17:32:05;6.00;;;5.00;;
73959;SDS011;62316;48.920;2.342;2023-05-10T17:34:33;5.00;;;3.33;;
73959;SDS011;62316;48.920;2.342;2023-05-10T17:36:59;4.00;;;4.00;;
73959;SDS011;62316;48.920;2.342;2023-05-10T17:39:27;5.00;;;3.00;;
73959;SDS011;62316;48.920;2.342;2023-05-10T17:41:56;8.67;;;6.67;;
73959;SDS011;62316;48.920;2.342;2023-05-10T17:44:22;4.67;;;4.67;;
73959;SDS011;62316;48.920;2.342;2023-05-10T17:46:48;3.33;;;2.33;;
73959;SDS011;62316;48.920;2.342;2023-05-10T17:49:23;7.33;;;5.67;;
73959;SDS011;62316;48.920;2.342;2023-05-10T17:51:58;4.33;;;2.33;;
73959;SDS011;62316;48.920;2.342;2023-05-10T17:54:23;4.00;;;4.00;;
73959;SDS011;62316;48.920;2.342;2023-05-10T17:56:49;4.00;;;4.00;;
73959;SDS011;62316;48.920;2.342;2023-05-10T17:59:14;4.00;;;3.00;;
73959;SDS011;62316;48.920;2.342;2023-05-10T18:01:39;3.33;;;3.00;;
73959;SDS011;62316;48.920;2.342;2023-05-10T18:04:11;3.00;;;3.00;;
73959;SDS011;62316;48.920;2.342;2023-05-10T18:06:43;3.00;;;2.00;;
73959;SDS011;62316;48.920;2.342;2023-05-10T18:09:09;4.33;;;3.33;;
73959;SDS011;62316;48.920;2.342;2023-05-10T18:11:35;3.33;;;3.33;;
73959;SDS011;62316;48.920;2.342;2023-05-10T18:14:02;2.00;;;2.00;;
73959;SDS011;62316;48.920;2.342;2023-05-10T18:16:27;4.67;;;3.00;;
73959;SDS011;62316;48.920;2.342;2023-05-10T18:18:53;1.33;;;0.00;;
73959;SDS011;62316;48.920;2.342;2023-05-10T18:21:18;5.33;;;3.67;;
73959;SDS011;62316;48.920;2.342;2023-05-10T18:23:43;7.67;;;7.33;;
73959;SDS011;62316;48.920;2.342;2023-05-10T18:26:09;4.00;;;3.67;;
73959;SDS011;62316;48.920;2.342;2023-05-10T18:28:35;1.33;;;1.33;;
73959;SDS011;62316;48.920;2.342;2023-05-10T18:31:00;2.00;;;1.00;;
73959;SDS011;62316;48.920;2.342;2023-05-10T18:33:26;6.00;;;3.00;;
73959;SDS011;62316;48.920;2.342;2023-05-10T18:35:52;6.00;;;3.33;;
73959;SDS011;62316;48.920;2.342;2023-05-10T18:38:17;6.00;;;6.00;;
73959;SDS011;62316;48.920;2.342;2023-05-10T18:40:43;4.00;;;3.00;;
73959;SDS011;62316;48.920;2.342;2023-05-10T18:43:08;7.33;;;5.00;;
73959;SDS011;62316;48.920;2.342;2023-05-10T18:48:41;2.00;;;2.00;;
73959;SDS011;62316;48.920;2.342;2023-05-10T18:51:07;4.00;;;4.00;;
73959;SDS011;62316;48.920;2.342;2023-05-10T18:53:32;5.00;;;4.67;;
73959;SDS011;62316;48.920;2.342;2023-05-10T18:55:58;4.00;;;3.33;;
73959;SDS011;62316;48.920;2.342;2023-05-10T18:58:27;4.00;;;4.00;;
73959;SDS011;62316;48.920;2.342;2023-05-10T19:00:53;3.67;;;3.67;;
73959;SDS011;62316;48.920;2.342;2023-05-10T19:03:19;3.33;;;3.33;;
73959;SDS011;62316;48.920;2.342;2023-05-10T19:05:45;2.33;;;2.00;;
73959;SDS011;62316;48.920;2.342;2023-05-10T19:08:12;5.00;;;5.00;;
73959;SDS011;62316;48.920;2.342;2023-05-10T19:10:38;3.00;;;3.00;;
73959;SDS011;62316;48.920;2.342;2023-05-10T19:13:04;4.33;;;3.00;;
73959;SDS011;62316;48.920;2.342;2023-05-10T19:15:30;4.00;;;4.00;;
73959;SDS011;62316;48.920;2.342;2023-05-10T19:17:55;4.00;;;4.00;;